Weather at Fly and Go Airfield

Public forecast

Using degrees Celsius for public forecast. Weather courtesy of forecast.io.

Closest aviation weather report (METAR) to Fly and Go Airfield

Closest report is Foggia "Gino Lisa" Airport, 5.3 nm (9.8 km) N.

2024/07/20 15:50 (retrieved 45 minutes ago)

LIBF 201550Z 33013KT 9999 FEW050 30/21 Q1008

Closest aviation forecast (TAF) to Fly and Go Airfield

Closest forecast is Foggia "Gino Lisa" Airport, 5.3 nm (9.8 km) N.

2024/07/20 12:00 (retrieved 5 hours ago)

TAF LIBF 201136Z 2012/2112 36015G25KT CAVOK BECMG 2014/2016 09010KT PROB30 TEMPO 2015/2018 TSRA BECMG 2018/2020 VRB05KT